Time;durP1;ratioP1;P1;durP2;ratioP2;P2;SDS_P1;SDS_P2;PMS_P1;PMS_P2;Temp;Humidity;BMP_temperature;BMP_pressure;BME280_temperature;BME280_humidity;BME280_pressure;Samples;Min_cycle;Max_cycle;Signal;HPM_P1;HPM_P2
2022/12/30 00:01:21;;;;;;;9.68;1.95;;;6.60;99.90;;;;;;5057967;28;20044;-71
2022/12/30 00:03:47;;;;;;;9.13;1.83;;;6.50;99.90;;;;;;5058289;28;20124;-71
2022/12/30 00:06:16;;;;;;;8.18;1.48;;;6.90;99.90;;;;;;5058446;28;20048;-71
2022/12/30 00:08:47;;;;;;;8.75;1.92;;;6.60;99.90;;;;;;5075993;28;20105;-71
2022/12/30 00:11:30;;;;;;;13.45;1.80;;;6.40;99.90;;;;;;5075605;28;20441;-71
2022/12/30 00:33:59;;;;;;;10.07;1.83;;;6.50;99.90;;;;;;5075360;28;20131;-71
2022/12/30 00:36:26;;;;;;;7.88;1.63;;;6.50;99.90;;;;;;5057746;28;20048;-71
2022/12/30 00:38:53;;;;;;;14.10;2.50;;;6.50;99.90;;;;;;5075205;28;20055;-71
2022/12/30 00:44:04;;;;;;;15.38;1.88;;;6.30;99.90;;;;;;5075440;28;20044;-71
2022/12/30 00:46:30;;;;;;;15.75;1.88;;;6.30;99.90;;;;;;5057348;28;20481;-72
2022/12/30 00:57:08;;;;;;;9.25;1.60;;;6.40;99.90;;;;;;5075257;28;20438;-71
2022/12/30 00:59:34;;;;;;;11.43;1.88;;;6.20;99.90;;;;;;5057298;28;20135;-71
2022/12/30 01:02:00;;;;;;;12.63;1.98;;;6.40;99.90;;;;;;5074721;28;20378;-71
2022/12/30 01:04:26;;;;;;;14.15;1.95;;;6.20;99.90;;;;;;5057216;28;20056;-71
2022/12/30 01:06:51;;;;;;;8.30;1.90;;;6.30;99.90;;;;;;5074787;28;20040;-71
2022/12/30 01:09:17;;;;;;;12.07;2.70;;;6.20;99.90;;;;;;5074829;28;20443;-71
2022/12/30 01:11:43;;;;;;;12.60;1.65;;;6.20;99.90;;;;;;5074141;28;20412;-71
2022/12/30 01:14:08;;;;;;;10.48;1.85;;;6.20;99.90;;;;;;5023348;28;20400;-72
2022/12/30 01:16:34;;;;;;;10.98;1.75;;;6.30;99.90;;;;;;5056682;28;20048;-72
2022/12/30 01:19:00;;;;;;;14.90;2.72;;;6.30;99.90;;;;;;5074717;28;20053;-71
2022/12/30 01:21:26;;;;;;;12.38;1.75;;;6.20;99.90;;;;;;5057100;28;20132;-72
2022/12/30 01:23:51;;;;;;;10.93;1.70;;;6.20;99.90;;;;;;5074492;28;20473;-71
2022/12/30 01:26:17;;;;;;;9.75;1.52;;;6.10;99.90;;;;;;5074424;28;20051;-72
2022/12/30 01:28:43;;;;;;;9.77;1.70;;;6.40;99.90;;;;;;5056659;28;20109;-72
2022/12/30 01:31:11;;;;;;;9.00;1.67;;;6.10;99.90;;;;;;5056549;28;20060;-72
2022/12/30 01:33:37;;;;;;;15.80;2.00;;;6.10;99.90;;;;;;5056553;28;20098;-71
2022/12/30 01:36:04;;;;;;;13.45;2.08;;;6.10;99.90;;;;;;5039829;28;20135;-71
2022/12/30 01:38:31;;;;;;;16.75;1.98;;;6.10;99.90;;;;;;5056203;28;20049;-71
2022/12/30 01:40:58;;;;;;;12.07;1.63;;;6.10;99.90;;;;;;5039545;28;20040;-72
2022/12/30 01:43:59;;;;;;;13.82;1.83;;;6.30;99.90;;;;;;5074105;28;20053;-72
2022/12/30 01:46:30;;;;;;;7.53;1.63;;;6.10;99.90;;;;;;4993050;28;20046;-71
2022/12/30 01:48:58;;;;;;;9.10;1.65;;;6.10;99.90;;;;;;5060156;28;20052;-72
2022/12/30 01:51:30;;;;;;;10.77;1.95;;;6.30;99.90;;;;;;5073967;28;20044;-71
2022/12/30 01:53:58;;;;;;;10.65;2.00;;;6.10;99.90;;;;;;5056227;28;20037;-71
2022/12/30 01:56:28;;;;;;;9.75;1.63;;;6.00;99.90;;;;;;5056042;28;20084;-72
2022/12/30 01:59:13;;;;;;;13.43;1.77;;;6.20;99.90;;;;;;5073922;28;20544;-70
2022/12/30 02:01:39;;;;;;;7.80;1.45;;;6.00;99.90;;;;;;5073690;28;20492;-71
2022/12/30 02:04:09;;;;;;;10.25;1.83;;;6.00;99.90;;;;;;5056111;28;20103;-72
2022/12/30 02:06:43;;;;;;;10.73;1.95;;;6.00;99.90;;;;;;5056238;28;20101;-70
2022/12/30 02:09:09;;;;;;;8.57;1.77;;;6.00;99.90;;;;;;5039281;28;20044;-71
2022/12/30 02:11:35;;;;;;;11.82;1.80;;;6.10;99.90;;;;;;5073267;28;20044;-71
2022/12/30 02:14:02;;;;;;;9.93;1.77;;;6.10;99.90;;;;;;5073907;28;20033;-71
2022/12/30 02:16:39;;;;;;;13.45;2.17;;;6.30;99.90;;;;;;5073512;28;20044;-71
2022/12/30 02:19:08;;;;;;;13.57;1.73;;;6.00;99.90;;;;;;5073501;28;20055;-71
2022/12/30 02:21:40;;;;;;;9.93;1.77;;;6.00;99.90;;;;;;5073694;28;20483;-72
2022/12/30 02:24:29;;;;;;;9.95;1.77;;;6.10;99.90;;;;;;5072801;28;20044;-72
2022/12/30 02:27:23;;;;;;;9.38;1.55;;;5.90;99.90;;;;;;5032209;28;20531;-71
2022/12/30 02:30:01;;;;;;;7.20;1.30;;;6.10;99.90;;;;;;5039315;28;20055;-72
2022/12/30 02:32:35;;;;;;;9.88;1.67;;;6.00;99.90;;;;;;5073571;28;20396;-72
2022/12/30 02:35:33;;;;;;;13.75;2.22;;;6.00;99.90;;;;;;5073680;28;20396;-71
2022/12/30 02:38:14;;;;;;;9.35;1.35;;;6.00;99.90;;;;;;5069618;28;20060;-71
2022/12/30 02:47:28;;;;;;;15.80;2.80;;;6.00;99.90;;;;;;5073308;28;20153;-71
2022/12/30 02:52:44;;;;;;;13.70;2.10;;;6.20;99.90;;;;;;5073468;28;20056;-72
2022/12/30 02:55:10;;;;;;;14.90;2.42;;;6.00;99.90;;;;;;5073102;28;20080;-71
2022/12/30 02:57:36;;;;;;;15.68;3.13;;;6.10;99.90;;;;;;5055578;28;20079;-71
2022/12/30 03:06:13;;;;;;;10.20;1.70;;;5.90;99.90;;;;;;5042358;28;20513;-71
2022/12/30 03:08:57;;;;;;;12.45;1.77;;;5.90;99.90;;;;;;5055301;28;20499;-71
2022/12/30 03:11:23;;;;;;;12.07;1.50;;;5.90;99.90;;;;;;5038609;28;20052;-73
2022/12/30 03:14:15;;;;;;;7.40;1.40;;;5.80;99.90;;;;;;5073341;28;20128;-71
2022/12/30 03:16:53;;;;;;;11.88;1.83;;;5.80;99.90;;;;;;5073112;28;20149;-71
2022/12/30 03:19:23;;;;;;;12.45;2.08;;;5.80;99.90;;;;;;5073098;28;20171;-72
2022/12/30 03:21:53;;;;;;;7.28;1.40;;;5.80;99.90;;;;;;5055377;28;20397;-71
2022/12/30 03:27:11;;;;;;;15.18;1.83;;;6.00;99.90;;;;;;5072966;28;20131;-71
2022/12/30 03:29:41;;;;;;;10.35;1.95;;;5.90;99.90;;;;;;5055484;28;20067;-72
2022/12/30 03:32:11;;;;;;;8.27;1.45;;;5.80;99.90;;;;;;5055237;28;20054;-71
2022/12/30 03:34:37;;;;;;;12.13;1.70;;;5.90;99.90;;;;;;5055761;28;20098;-71
2022/12/30 03:37:09;;;;;;;12.07;1.80;;;5.80;99.90;;;;;;5075797;28;20056;-72
2022/12/30 03:39:42;;;;;;;12.50;2.15;;;5.70;99.90;;;;;;5076667;28;20044;-71
2022/12/30 03:42:09;;;;;;;10.15;1.80;;;5.90;99.90;;;;;;5058508;28;20040;-69
2022/12/30 03:44:39;;;;;;;11.15;1.75;;;5.70;99.90;;;;;;5042056;28;20087;-69
2022/12/30 03:47:11;;;;;;;8.27;1.70;;;5.80;99.90;;;;;;5058962;28;20399;-71
2022/12/30 03:49:38;;;;;;;9.70;1.77;;;5.90;99.90;;;;;;5058463;28;20060;-71
2022/12/30 03:52:03;;;;;;;9.50;1.95;;;5.80;99.90;;;;;;5076321;28;20052;-71
2022/12/30 03:54:29;;;;;;;14.13;1.70;;;5.80;99.90;;;;;;5076272;28;20404;-71
2022/12/30 03:56:55;;;;;;;8.80;1.70;;;5.70;99.90;;;;;;5076183;28;20040;-71
2022/12/30 03:59:21;;;;;;;11.02;2.38;;;5.80;99.90;;;;;;5058801;28;20052;-71
2022/12/30 04:01:47;;;;;;;11.98;1.65;;;5.70;99.90;;;;;;5076407;28;20051;-71
2022/12/30 04:04:12;;;;;;;10.93;1.77;;;5.70;99.90;;;;;;5058258;28;20052;-71
2022/12/30 04:06:38;;;;;;;11.25;2.35;;;5.80;99.90;;;;;;5075953;28;20126;-71
2022/12/30 04:09:04;;;;;;;8.32;1.67;;;5.60;99.90;;;;;;5075909;28;20044;-71
2022/12/30 04:11:29;;;;;;;10.52;1.50;;;5.80;99.90;;;;;;5041008;28;20543;-72
2022/12/30 04:13:55;;;;;;;10.05;1.42;;;5.70;99.90;;;;;;5058036;28;20040;-71
2022/12/30 04:16:21;;;;;;;9.82;1.42;;;5.80;99.90;;;;;;5058080;28;20049;-71
2022/12/30 04:18:46;;;;;;;8.20;1.35;;;5.60;99.90;;;;;;5058130;28;20058;-71
2022/12/30 04:21:12;;;;;;;8.40;1.45;;;5.70;99.90;;;;;;5041570;28;20052;-71
2022/12/30 04:23:38;;;;;;;10.63;1.75;;;5.60;99.90;;;;;;5075642;28;20446;-71
2022/12/30 04:26:04;;;;;;;6.15;1.50;;;5.60;99.90;;;;;;5075389;28;20045;-72
2022/12/30 04:28:29;;;;;;;10.50;1.50;;;5.50;99.90;;;;;;5075284;28;20048;-72
2022/12/30 04:30:55;;;;;;;10.10;1.85;;;5.60;99.90;;;;;;5057695;28;20052;-71
2022/12/30 04:33:21;;;;;;;10.60;1.95;;;5.50;99.90;;;;;;5075597;28;20384;-71
2022/12/30 04:35:46;;;;;;;10.23;2.30;;;5.60;99.90;;;;;;5040684;28;20043;-71
2022/12/30 04:38:12;;;;;;;5.97;1.73;;;5.50;99.90;;;;;;5075341;28;20044;-71
2022/12/30 04:40:37;;;;;;;9.45;2.33;;;5.50;99.90;;;;;;5075388;28;20051;-70
2022/12/30 04:43:03;;;;;;;9.48;1.98;;;5.40;99.90;;;;;;5074661;28;20404;-70
2022/12/30 04:45:29;;;;;;;9.02;2.10;;;5.60;99.90;;;;;;5057688;28;20190;-70
2022/12/30 04:47:55;;;;;;;9.43;1.65;;;5.50;99.90;;;;;;5074384;28;20059;-70
2022/12/30 04:50:20;;;;;;;11.85;2.00;;;5.50;99.90;;;;;;5075146;28;20048;-70
2022/12/30 04:52:46;;;;;;;11.68;2.25;;;5.50;99.90;;;;;;5074986;28;20499;-70
2022/12/30 04:55:12;;;;;;;12.32;2.10;;;5.80;99.90;;;;;;5057063;28;20051;-70
2022/12/30 04:57:37;;;;;;;12.75;2.80;;;5.70;99.90;;;;;;5074866;28;20386;-70
2022/12/30 05:00:05;;;;;;;11.18;2.60;;;5.60;99.90;;;;;;5074975;28;20127;-70
2022/12/30 05:02:31;;;;;;;10.27;2.67;;;6.40;99.90;;;;;;5057679;28;20056;-71
2022/12/30 05:04:57;;;;;;;9.88;2.60;;;5.90;99.90;;;;;;5057518;28;20071;-71
2022/12/30 05:07:22;;;;;;;8.68;2.10;;;5.60;99.90;;;;;;5074893;28;20480;-70
2022/12/30 05:09:48;;;;;;;10.43;2.33;;;5.70;99.90;;;;;;5074733;28;20401;-70
2022/12/30 05:12:14;;;;;;;11.10;2.22;;;5.60;99.90;;;;;;5056321;28;20048;-71
2022/12/30 05:14:40;;;;;;;11.52;2.17;;;5.70;99.90;;;;;;5074574;28;20043;-70
2022/12/30 05:17:05;;;;;;;13.57;2.78;;;5.50;99.90;;;;;;5056978;28;20059;-70
2022/12/30 05:19:31;;;;;;;7.85;1.90;;;5.70;99.90;;;;;;5056768;28;20048;-71
2022/12/30 05:21:57;;;;;;;7.68;2.33;;;5.50;99.90;;;;;;5074513;28;20048;-70
2022/12/30 05:27:18;;;;;;;11.63;2.97;;;5.40;99.90;;;;;;5002616;28;20050;-71
2022/12/30 05:29:43;;;;;;;8.75;2.28;;;5.40;99.90;;;;;;5057313;28;20040;-70
2022/12/30 05:32:09;;;;;;;7.35;2.10;;;5.60;99.90;;;;;;5074342;28;20131;-70
2022/12/30 05:34:35;;;;;;;6.30;2.00;;;5.60;99.90;;;;;;5074174;28;20476;-70
2022/12/30 05:37:00;;;;;;;9.88;2.30;;;5.50;99.90;;;;;;5056520;28;20093;-71
2022/12/30 05:39:26;;;;;;;8.55;2.40;;;5.50;99.90;;;;;;5056410;28;20490;-70
2022/12/30 05:41:51;;;;;;;7.18;1.67;;;5.50;99.90;;;;;;5073808;28;20056;-70
2022/12/30 05:44:17;;;;;;;10.02;1.73;;;5.40;99.90;;;;;;5074058;28;20041;-70
2022/12/30 05:46:43;;;;;;;9.38;2.42;;;5.30;99.90;;;;;;5073917;28;20495;-70
2022/12/30 05:49:08;;;;;;;8.20;2.10;;;5.40;99.90;;;;;;5056122;28;20053;-70
2022/12/30 05:51:34;;;;;;;7.13;1.70;;;5.50;99.90;;;;;;5039787;28;20445;-71
2022/12/30 05:54:00;;;;;;;6.32;1.90;;;5.40;99.90;;;;;;5073663;28;20123;-71
2022/12/30 05:56:26;;;;;;;7.97;1.55;;;5.30;99.90;;;;;;5039768;28;20047;-71
2022/12/30 05:58:51;;;;;;;9.50;2.72;;;5.40;99.90;;;;;;5073862;28;20110;-71
2022/12/30 06:01:17;;;;;;;12.32;2.17;;;5.30;99.90;;;;;;5056200;28;20052;-70
2022/12/30 06:03:43;;;;;;;9.50;1.85;;;5.40;99.90;;;;;;5055932;28;20123;-71
2022/12/30 06:06:09;;;;;;;9.80;1.63;;;5.20;99.90;;;;;;5073729;28;20044;-71
2022/12/30 06:08:36;;;;;;;6.88;2.08;;;5.80;99.90;;;;;;5073481;28;20086;-71
2022/12/30 06:11:02;;;;;;;7.68;1.77;;;5.20;99.90;;;;;;5073733;28;20118;-71
2022/12/30 06:13:27;;;;;;;8.85;1.90;;;5.30;99.90;;;;;;5073285;28;20446;-70
2022/12/30 06:15:53;;;;;;;7.55;1.90;;;5.30;99.90;;;;;;5055637;28;20128;-71
2022/12/30 06:18:19;;;;;;;7.88;1.52;;;5.30;99.90;;;;;;5073547;28;20147;-71
2022/12/30 06:20:45;;;;;;;6.13;1.30;;;5.30;99.90;;;;;;5073605;28;20050;-70
2022/12/30 06:23:11;;;;;;;9.90;2.08;;;5.70;99.90;;;;;;5073337;28;20131;-71
2022/12/30 06:25:36;;;;;;;9.32;1.65;;;5.20;99.90;;;;;;5055897;28;20044;-71
2022/12/30 06:28:02;;;;;;;5.80;1.63;;;5.30;99.90;;;;;;5073498;28;20040;-71
2022/12/30 06:30:29;;;;;;;7.80;1.48;;;5.20;99.90;;;;;;5073746;28;20071;-70
2022/12/30 06:32:55;;;;;;;9.30;1.75;;;5.20;99.90;;;;;;5073272;28;20044;-70
2022/12/30 06:35:21;;;;;;;7.47;1.80;;;5.20;99.90;;;;;;5073136;28;20472;-70
2022/12/30 06:37:47;;;;;;;8.60;1.70;;;5.20;99.90;;;;;;5073276;28;20091;-70
2022/12/30 06:40:12;;;;;;;6.63;1.52;;;5.50;99.90;;;;;;5073416;28;20087;-70
2022/12/30 06:42:38;;;;;;;8.73;1.55;;;5.20;99.90;;;;;;5073178;28;20126;-70
2022/12/30 06:45:05;;;;;;;6.55;1.85;;;5.20;99.90;;;;;;5073425;28;20044;-70
2022/12/30 06:47:31;;;;;;;7.55;1.40;;;5.10;99.90;;;;;;5073390;28;20073;-71
2022/12/30 06:49:57;;;;;;;6.13;1.30;;;5.10;99.90;;;;;;5073352;28;20132;-70
2022/12/30 06:52:23;;;;;;;6.97;1.65;;;5.10;99.90;;;;;;5073106;28;20064;-70
2022/12/30 06:54:49;;;;;;;6.38;1.30;;;5.10;99.90;;;;;;5055292;28;20056;-71
2022/12/30 06:57:14;;;;;;;7.07;1.40;;;5.10;99.90;;;;;;5055723;28;20172;-70
2022/12/30 06:59:40;;;;;;;8.60;1.42;;;5.20;99.90;;;;;;5073167;28;20079;-71
2022/12/30 07:02:06;;;;;;;6.18;1.30;;;5.20;99.90;;;;;;5055314;28;20456;-71
2022/12/30 07:04:32;;;;;;;5.45;1.48;;;5.10;99.90;;;;;;5073135;28;20044;-70
2022/12/30 07:06:58;;;;;;;11.10;1.35;;;5.10;99.90;;;;;;5072965;28;20041;-71
2022/12/30 07:09:24;;;;;;;9.02;1.48;;;5.10;99.90;;;;;;5073117;28;20044;-71
2022/12/30 07:11:49;;;;;;;11.13;1.52;;;5.20;99.90;;;;;;5057784;28;20556;-71
2022/12/30 07:14:15;;;;;;;13.50;1.55;;;5.10;99.90;;;;;;5059119;28;20051;-71
2022/12/30 07:16:41;;;;;;;10.82;1.95;;;5.20;99.90;;;;;;5059383;28;20480;-71
2022/12/30 07:19:06;;;;;;;6.15;1.63;;;5.10;99.90;;;;;;5076809;28;20044;-71
2022/12/30 07:21:32;;;;;;;5.72;1.20;;;5.00;99.90;;;;;;5076637;28;20084;-71
2022/12/30 07:23:58;;;;;;;6.13;1.35;;;5.10;99.90;;;;;;5076855;28;20052;-70
2022/12/30 07:26:24;;;;;;;7.30;1.35;;;5.20;99.90;;;;;;5076678;28;20127;-71
2022/12/30 07:28:53;;;;;;;7.32;1.15;;;5.10;99.90;;;;;;5076696;28;20087;-71
2022/12/30 07:31:19;;;;;;;7.35;1.33;;;5.00;99.90;;;;;;5059036;28;20051;-71
2022/12/30 07:33:44;;;;;;;5.85;1.30;;;5.20;99.90;;;;;;5076644;28;20037;-71
2022/12/30 07:36:10;;;;;;;6.38;1.33;;;5.00;99.90;;;;;;5058667;28;20098;-71
2022/12/30 07:38:36;;;;;;;4.93;1.40;;;5.20;99.90;;;;;;5042305;28;20369;-71
2022/12/30 07:41:01;;;;;;;6.55;1.85;;;5.10;99.90;;;;;;5058692;28;20055;-71
2022/12/30 07:43:27;;;;;;;9.27;1.60;;;5.10;99.90;;;;;;5075934;28;20046;-71
2022/12/30 07:45:53;;;;;;;6.90;1.65;;;5.10;99.90;;;;;;5076430;28;20040;-71
2022/12/30 07:48:18;;;;;;;7.45;1.33;;;5.10;99.90;;;;;;5076416;28;20083;-71
2022/12/30 07:50:44;;;;;;;6.43;1.75;;;5.00;99.90;;;;;;5076626;28;20061;-71
2022/12/30 07:53:10;;;;;;;8.60;1.77;;;5.10;99.90;;;;;;5076015;28;20052;-71
2022/12/30 07:55:40;;;;;;;10.77;1.40;;;5.10;99.90;;;;;;5058435;28;20044;-71
2022/12/30 07:58:06;;;;;;;6.15;1.63;;;5.10;99.90;;;;;;5076277;28;20084;-71
2022/12/30 08:00:32;;;;;;;10.68;1.63;;;5.00;99.90;;;;;;5076046;28;20440;-71
2022/12/30 08:02:58;;;;;;;9.13;1.50;;;5.00;99.90;;;;;;5076244;28;20053;-71
2022/12/30 08:05:24;;;;;;;9.23;1.38;;;5.00;99.90;;;;;;5075880;28;20069;-71
2022/12/30 08:07:52;;;;;;;6.93;1.90;;;4.90;99.90;;;;;;5076112;28;20122;-71
2022/12/30 08:10:19;;;;;;;7.60;1.20;;;5.10;99.90;;;;;;5058393;28;20114;-71
2022/12/30 08:12:45;;;;;;;5.43;1.30;;;5.20;99.90;;;;;;5075569;28;20059;-71
2022/12/30 08:15:12;;;;;;;8.23;1.75;;;5.10;99.90;;;;;;5076113;28;20048;-71
2022/12/30 08:17:37;;;;;;;9.07;1.70;;;5.00;99.90;;;;;;5075872;28;20041;-71
2022/12/30 08:20:06;;;;;;;5.32;1.33;;;5.10;99.90;;;;;;5075594;28;20055;-71
2022/12/30 08:22:32;;;;;;;6.03;1.25;;;5.00;99.90;;;;;;5058110;28;20111;-71
2022/12/30 08:24:57;;;;;;;9.50;1.42;;;5.10;99.90;;;;;;5057989;28;20492;-71
2022/12/30 08:27:23;;;;;;;9.90;1.30;;;5.00;99.90;;;;;;5075728;28;20041;-71
2022/12/30 08:29:49;;;;;;;8.57;1.55;;;5.00;99.90;;;;;;5057824;28;20377;-71
2022/12/30 08:32:14;;;;;;;6.55;1.30;;;5.10;99.90;;;;;;5075560;28;20045;-71
2022/12/30 08:34:40;;;;;;;6.32;1.20;;;5.90;99.90;;;;;;5057459;28;20049;-71
2022/12/30 08:37:06;;;;;;;8.20;1.40;;;5.30;99.90;;;;;;5057876;28;20048;-72
2022/12/30 08:39:31;;;;;;;7.13;1.45;;;5.10;99.90;;;;;;5075235;28;20048;-71
2022/12/30 08:41:57;;;;;;;8.30;1.20;;;5.20;99.90;;;;;;5074969;28;20099;-71
2022/12/30 08:44:24;;;;;;;10.63;1.40;;;5.10;99.90;;;;;;5041099;28;20098;-71
2022/12/30 08:46:50;;;;;;;7.57;1.15;;;5.30;99.90;;;;;;5075406;28;20054;-71
2022/12/30 08:49:16;;;;;;;4.63;1.20;;;5.20;99.90;;;;;;5040705;28;20467;-71
2022/12/30 08:51:42;;;;;;;9.52;2.40;;;5.20;99.90;;;;;;5075406;28;20057;-71
2022/12/30 08:54:08;;;;;;;6.53;1.70;;;5.30;99.90;;;;;;5075090;28;20036;-72
2022/12/30 08:56:35;;;;;;;8.00;1.10;;;5.40;99.90;;;;;;5075273;28;20084;-71
2022/12/30 08:59:02;;;;;;;6.45;1.50;;;5.50;99.90;;;;;;5074982;28;20109;-72
2022/12/30 09:01:40;;;;;;;5.30;1.17;;;5.30;99.90;;;;;;5075070;28;20400;-72
2022/12/30 09:04:08;;;;;;;5.63;1.38;;;5.50;99.90;;;;;;5074852;28;20441;-72
2022/12/30 09:06:36;;;;;;;8.75;1.65;;;5.40;99.90;;;;;;5074986;28;20059;-71
2022/12/30 09:09:08;;;;;;;10.82;1.65;;;5.50;99.90;;;;;;5057404;28;20408;-72
2022/12/30 09:11:36;;;;;;;10.23;1.50;;;5.60;99.90;;;;;;5040184;28;20053;-72
2022/12/30 09:14:05;;;;;;;7.72;1.33;;;5.40;99.90;;;;;;5056884;28;20052;-72
2022/12/30 09:16:31;;;;;;;4.07;1.33;;;5.50;99.90;;;;;;5056940;28;20044;-72
2022/12/30 09:18:57;;;;;;;6.90;1.45;;;5.60;99.90;;;;;;5074776;28;20049;-71
2022/12/30 09:21:23;;;;;;;8.77;1.30;;;5.50;99.90;;;;;;5040394;28;20484;-72
2022/12/30 09:23:49;;;;;;;12.27;1.35;;;5.60;99.90;;;;;;5074572;28;20105;-70
2022/12/30 09:26:19;;;;;;;5.70;1.30;;;5.70;99.90;;;;;;5056701;28;20048;-71
2022/12/30 09:28:44;;;;;;;7.20;1.40;;;5.60;99.90;;;;;;5074215;28;20037;-72
2022/12/30 09:31:11;;;;;;;4.47;1.15;;;6.00;99.90;;;;;;5074444;28;20067;-71
2022/12/30 09:33:37;;;;;;;5.95;1.95;;;5.60;99.90;;;;;;5074504;28;20041;-71
2022/12/30 09:36:03;;;;;;;6.03;1.40;;;5.80;99.90;;;;;;5056485;28;20480;-70
2022/12/30 09:38:28;;;;;;;6.03;1.55;;;5.60;99.90;;;;;;5056480;28;20114;-70
2022/12/30 09:44:57;;;;;;;10.98;1.95;;;5.70;99.90;;;;;;5074253;28;20057;-73
2022/12/30 09:47:27;;;;;;;13.93;2.10;;;5.70;99.90;;;;;;5074075;28;20044;-71
2022/12/30 09:50:02;;;;;;;5.40;1.17;;;5.70;99.90;;;;;;5073695;28;20074;-71
2022/12/30 09:52:49;;;;;;;6.78;1.27;;;5.70;99.90;;;;;;5074660;28;20056;-71
2022/12/30 09:55:31;;;;;;;6.57;1.10;;;5.80;99.90;;;;;;5073849;28;20048;-72
2022/12/30 09:58:05;;;;;;;4.70;1.55;;;5.80;99.90;;;;;;5056308;28;20048;-71
2022/12/30 10:00:34;;;;;;;7.53;1.42;;;5.70;99.90;;;;;;5056494;28;20090;-74
2022/12/30 10:03:06;;;;;;;7.03;1.25;;;5.80;99.90;;;;;;5074086;28;20040;-71
2022/12/30 10:05:53;;;;;;;8.13;1.70;;;5.90;99.90;;;;;;5073876;28;20051;-72
2022/12/30 10:08:56;;;;;;;9.27;1.15;;;5.80;99.90;;;;;;5039653;28;20049;-72
2022/12/30 10:11:31;;;;;;;7.47;2.10;;;5.90;99.90;;;;;;5055973;28;20059;-72
2022/12/30 10:14:17;;;;;;;10.13;2.45;;;5.90;99.90;;;;;;5056018;28;20101;-74
2022/12/30 10:16:59;;;;;;;5.60;1.27;;;5.90;99.90;;;;;;5073551;28;20059;-74
2022/12/30 10:19:27;;;;;;;4.30;0.95;;;5.90;99.90;;;;;;5077815;28;20086;-70
2022/12/30 10:22:18;;;;;;;6.55;1.40;;;6.10;99.90;;;;;;5092000;28;20108;-71
2022/12/30 10:25:00;;;;;;;8.48;1.30;;;6.10;99.90;;;;;;5083168;28;20443;-70
2022/12/30 10:27:47;;;;;;;3.75;1.05;;;6.00;99.90;;;;;;5083701;28;20384;-71
2022/12/30 10:30:19;;;;;;;4.72;1.00;;;6.10;99.90;;;;;;5084127;28;20036;-70
2022/12/30 10:32:51;;;;;;;5.10;1.48;;;6.10;99.90;;;;;;5083218;28;20044;-69
2022/12/30 10:35:23;;;;;;;5.93;1.57;;;6.10;99.90;;;;;;5069883;28;20175;-70
2022/12/30 10:37:54;;;;;;;5.45;1.63;;;6.40;99.90;;;;;;5082051;28;20121;-69
2022/12/30 10:40:24;;;;;;;1.85;0.75;;;6.20;99.90;;;;;;5082584;28;20048;-70
2022/12/30 10:43:25;;;;;;;6.50;1.00;;;6.20;99.90;;;;;;5081657;28;20047;-69
2022/12/30 10:46:10;;;;;;;3.92;1.10;;;6.20;99.90;;;;;;5082387;28;20052;-72
2022/12/30 10:48:47;;;;;;;5.05;1.10;;;6.20;99.90;;;;;;5088170;28;20075;-70
2022/12/30 10:51:16;;;;;;;7.30;1.05;;;6.30;99.90;;;;;;5087968;28;20440;-71
2022/12/30 10:53:44;;;;;;;4.43;0.98;;;6.40;99.90;;;;;;5058604;28;20091;-69
2022/12/30 10:56:19;;;;;;;7.65;1.52;;;6.60;99.90;;;;;;5086011;28;20040;-69
2022/12/30 10:58:48;;;;;;;5.30;1.02;;;6.40;99.90;;;;;;5076139;28;20079;-69
2022/12/30 11:01:22;;;;;;;4.10;1.00;;;6.40;99.90;;;;;;5085828;28;20064;-70
2022/12/30 11:03:56;;;;;;;6.63;1.35;;;6.40;99.90;;;;;;5086346;28;20044;-69
2022/12/30 11:06:28;;;;;;;5.65;1.15;;;6.50;99.90;;;;;;5068640;28;20052;-70
2022/12/30 11:09:13;;;;;;;5.38;1.10;;;6.50;99.90;;;;;;5083730;28;20119;-70
2022/12/30 11:14:44;;;;;;;6.15;1.10;;;6.60;99.90;;;;;;5084395;28;20123;-69
2022/12/30 11:17:16;;;;;;;3.28;0.90;;;6.40;99.90;;;;;;5084422;28;20086;-71
2022/12/30 11:19:43;;;;;;;2.92;0.82;;;6.70;99.90;;;;;;5085354;28;20055;-71
2022/12/30 11:22:10;;;;;;;3.53;1.00;;;6.70;99.90;;;;;;5084747;28;20101;-69
2022/12/30 11:24:37;;;;;;;3.70;1.08;;;7.00;99.90;;;;;;5076380;28;20044;-70
2022/12/30 11:27:03;;;;;;;4.38;1.20;;;6.90;99.90;;;;;;5067905;28;20047;-69
2022/12/30 11:29:33;;;;;;;3.42;0.90;;;6.90;99.90;;;;;;5083162;28;20412;-70
2022/12/30 11:32:08;;;;;;;6.25;1.23;;;6.80;99.90;;;;;;5084013;28;20595;-72
2022/12/30 11:34:38;;;;;;;5.57;0.93;;;6.80;99.90;;;;;;5083588;28;20070;-70
2022/12/30 11:37:24;;;;;;;3.38;1.10;;;6.80;99.90;;;;;;5066086;28;20053;-70
2022/12/30 11:39:49;;;;;;;3.05;0.95;;;6.70;99.90;;;;;;5075164;28;20044;-74
2022/12/30 11:42:31;;;;;;;3.65;1.02;;;6.90;99.90;;;;;;5082833;28;20381;-70
2022/12/30 11:45:19;;;;;;;4.28;0.85;;;6.80;99.90;;;;;;5069050;28;20077;-66
2022/12/30 11:47:48;;;;;;;5.65;1.40;;;6.80;99.90;;;;;;5085230;28;20067;-69
2022/12/30 11:50:18;;;;;;;4.40;0.73;;;6.80;99.90;;;;;;5084879;28;20400;-70
2022/12/30 11:52:55;;;;;;;4.25;0.90;;;6.90;99.90;;;;;;5065530;28;20076;-71
2022/12/30 11:55:25;;;;;;;3.60;1.40;;;7.00;99.90;;;;;;5073902;28;20456;-70
2022/12/30 11:57:55;;;;;;;4.35;1.00;;;7.00;99.90;;;;;;5084604;28;20048;-70
2022/12/30 12:00:21;;;;;;;4.55;0.90;;;7.00;99.90;;;;;;5085514;28;20071;-70
2022/12/30 12:02:59;;;;;;;3.50;0.85;;;6.90;99.90;;;;;;5085387;28;20036;-70
2022/12/30 12:05:30;;;;;;;4.55;0.85;;;7.00;99.90;;;;;;5086152;28;20040;-70
2022/12/30 12:08:03;;;;;;;3.45;0.70;;;7.00;99.90;;;;;;5084315;28;20480;-71
2022/12/30 12:10:37;;;;;;;3.85;0.90;;;7.10;99.90;;;;;;5075258;28;20504;-70
2022/12/30 12:13:21;;;;;;;4.88;0.88;;;7.20;99.90;;;;;;5074014;28;20048;-70
2022/12/30 12:15:51;;;;;;;4.10;1.15;;;7.10;99.90;;;;;;5085213;28;20094;-70
2022/12/30 12:18:42;;;;;;;3.10;0.60;;;7.00;99.90;;;;;;5084320;28;20047;-70
2022/12/30 12:21:26;;;;;;;2.17;0.95;;;7.10;99.90;;;;;;5071395;28;20044;-70
2022/12/30 12:24:01;;;;;;;2.05;0.75;;;7.10;99.90;;;;;;5075948;28;20460;-72
2022/12/30 12:26:42;;;;;;;6.25;0.80;;;7.10;99.90;;;;;;5085785;28;20480;-70
2022/12/30 12:29:12;;;;;;;8.45;0.70;;;7.20;99.90;;;;;;5085742;28;20119;-70
2022/12/30 12:32:02;;;;;;;2.70;0.60;;;7.20;99.90;;;;;;5072113;28;20037;-70
2022/12/30 12:34:43;;;;;;;2.78;0.60;;;7.20;99.90;;;;;;5085350;28;20045;-70
2022/12/30 12:37:33;;;;;;;4.38;1.60;;;7.20;99.90;;;;;;5042071;28;20086;-70
2022/12/30 12:40:18;;;;;;;2.40;0.57;;;7.20;99.90;;;;;;5084439;28;20128;-70
2022/12/30 12:43:21;;;;;;;1.02;0.45;;;7.30;99.90;;;;;;5069797;28;20486;-72
2022/12/30 12:46:08;;;;;;;2.47;0.60;;;7.30;99.90;;;;;;5084362;28;20040;-72
2022/12/30 12:48:41;;;;;;;3.30;0.70;;;7.30;99.90;;;;;;5083656;28;20044;-71
2022/12/30 12:51:33;;;;;;;2.45;0.50;;;7.10;99.90;;;;;;5083744;28;20094;-71
2022/12/30 12:54:14;;;;;;;3.20;0.52;;;7.40;99.90;;;;;;5071841;28;20132;-70
2022/12/30 12:57:04;;;;;;;3.17;0.70;;;7.40;99.90;;;;;;5071804;28;20043;-71
2022/12/30 12:59:30;;;;;;;2.15;0.60;;;7.50;99.90;;;;;;5084687;28;20052;-70
2022/12/30 13:02:04;;;;;;;1.65;0.40;;;7.50;99.90;;;;;;5074014;28;20036;-73
2022/12/30 13:04:57;;;;;;;3.20;0.50;;;7.50;99.90;;;;;;5074018;28;20036;-72
2022/12/30 13:08:00;;;;;;;5.28;0.73;;;7.80;99.90;;;;;;5070316;28;20044;-71
2022/12/30 13:10:52;;;;;;;1.27;0.40;;;7.50;99.90;;;;;;5073066;28;20094;-72
2022/12/30 13:13:43;;;;;;;4.03;0.60;;;7.50;99.90;;;;;;5075314;28;20483;-73
2022/12/30 13:16:20;;;;;;;2.75;0.40;;;7.60;99.90;;;;;;5082184;28;20028;-72
2022/12/30 13:18:49;;;;;;;2.55;0.70;;;7.50;99.90;;;;;;5072290;28;20044;-72
2022/12/30 13:21:20;;;;;;;2.88;0.55;;;7.60;99.90;;;;;;5073161;28;20507;-71
2022/12/30 13:23:51;;;;;;;2.78;0.60;;;7.70;99.90;;;;;;5083965;28;20101;-73
2022/12/30 13:26:19;;;;;;;2.33;0.50;;;7.60;99.90;;;;;;5075508;28;20055;-71
2022/12/30 13:28:52;;;;;;;2.65;0.60;;;7.60;99.90;;;;;;5083280;28;20051;-71
2022/12/30 13:31:45;;;;;;;1.65;0.60;;;7.50;99.90;;;;;;5082818;28;20036;-71
2022/12/30 13:34:37;;;;;;;2.77;0.60;;;7.60;99.90;;;;;;5082144;28;20043;-71
2022/12/30 13:37:08;;;;;;;1.20;0.40;;;7.50;99.90;;;;;;5083304;28;20354;-71
2022/12/30 13:40:06;;;;;;;1.13;0.45;;;7.50;99.90;;;;;;5082304;28;20045;-71
2022/12/30 13:42:43;;;;;;;1.60;0.50;;;7.50;99.90;;;;;;5067978;28;20138;-72
2022/12/30 13:45:35;;;;;;;1.75;0.50;;;7.50;99.90;;;;;;5084031;28;20044;-70
2022/12/30 13:48:14;;;;;;;1.27;0.50;;;7.50;99.90;;;;;;5071208;28;20063;-69
2022/12/30 13:50:42;;;;;;;3.60;0.60;;;7.50;99.90;;;;;;5082688;28;20153;-71
2022/12/30 13:53:30;;;;;;;1.60;0.50;;;7.60;99.90;;;;;;5083527;28;20044;-71
2022/12/30 13:55:55;;;;;;;5.75;1.00;;;7.60;99.90;;;;;;5084089;28;20040;-72
2022/12/30 13:58:36;;;;;;;4.32;0.60;;;7.60;99.90;;;;;;5083116;28;20040;-72
2022/12/30 14:01:20;;;;;;;1.77;0.60;;;7.50;99.90;;;;;;5069050;28;20048;-72
2022/12/30 14:03:47;;;;;;;3.38;0.60;;;7.50;99.90;;;;;;5071996;28;20484;-74
2022/12/30 14:06:46;;;;;;;4.80;0.60;;;7.60;99.90;;;;;;5084015;28;20052;-70
2022/12/30 14:09:23;;;;;;;2.42;0.57;;;7.50;99.90;;;;;;5073460;28;20113;-71
2022/12/30 14:12:04;;;;;;;3.95;0.60;;;7.60;99.90;;;;;;5083314;28;20047;-75
2022/12/30 14:14:34;;;;;;;2.45;0.90;;;7.60;99.90;;;;;;5073090;28;20410;-71